N751CT KDCA-KPVU
Flight info
| Callsign | N751CT |
|---|---|
| Flight time | N/A |
| Altitude | 40000 |
| Route | REBLL5 OTTTO Q176 BICKS/N0499F430 Q176 JUDDI J134 STL J24 MCI J80 FQF J116 EKR J199 HELPR TAYTR3 |
| Aircraft | C750/M-SBDE3FGHRWXY/S |
Departure
| Time | N/A |
|---|---|
| Airport | Ronald Reagan Washington National Airport (KDCA) |
Arrival
| Time | 2026-04-20 02:45 |
|---|---|
| Airport | Provo Municipal Airport (KPVU) |
| Time | Latitude | Longitude | Altitude | Speed | Heading |
|---|---|---|---|---|---|
| 2026-04-20 02:10 | 39.99841 | -108.54785 | 37582 ft | 413 kts | 262° |
| 2026-04-20 02:10 | 39.99419 | -108.58510 | 36156 ft | 429 kts | 262° |
| 2026-04-20 02:11 | 39.98978 | -108.62361 | 35513 ft | 426 kts | 262° |
| 2026-04-20 02:11 | 39.98541 | -108.66168 | 34690 ft | 424 kts | 262° |
| 2026-04-20 02:11 | 39.98103 | -108.69998 | 33555 ft | 430 kts | 262° |
| 2026-04-20 02:11 | 39.97658 | -108.73879 | 32489 ft | 434 kts | 262° |
| 2026-04-20 02:12 | 39.97210 | -108.77739 | 32073 ft | 423 kts | 262° |
| 2026-04-20 02:12 | 39.96776 | -108.81471 | 32079 ft | 415 kts | 262° |
| 2026-04-20 02:12 | 39.96337 | -108.85257 | 32078 ft | 429 kts | 262° |
| 2026-04-20 02:12 | 39.95885 | -108.89159 | 32084 ft | 441 kts | 262° |
| 2026-04-20 02:13 | 39.95421 | -108.93121 | 32083 ft | 453 kts | 262° |
| 2026-04-20 02:13 | 39.94938 | -108.97238 | 32077 ft | 465 kts | 262° |
| 2026-04-20 02:13 | 39.93937 | -109.05741 | 32073 ft | 485 kts | 262° |
| 2026-04-20 02:14 | 39.92885 | -109.14601 | 32065 ft | 502 kts | 261° |
| 2026-04-20 02:14 | 39.91797 | -109.23719 | 32066 ft | 514 kts | 261° |
| 2026-04-20 02:15 | 39.90694 | -109.32890 | 32062 ft | 516 kts | 261° |
| 2026-04-20 02:15 | 39.89579 | -109.42108 | 32061 ft | 515 kts | 261° |
| 2026-04-20 02:16 | 39.88458 | -109.51303 | 32061 ft | 514 kts | 261° |
| 2026-04-20 02:16 | 39.87328 | -109.60506 | 32066 ft | 513 kts | 261° |
| 2026-04-20 02:17 | 39.86195 | -109.69685 | 32068 ft | 513 kts | 261° |
| 2026-04-20 02:17 | 39.85055 | -109.78846 | 32068 ft | 512 kts | 261° |
| 2026-04-20 02:18 | 39.83910 | -109.87995 | 32078 ft | 512 kts | 260° |
| 2026-04-20 02:18 | 39.82758 | -109.97136 | 32097 ft | 512 kts | 260° |
| 2026-04-20 02:19 | 39.81598 | -110.06286 | 32098 ft | 512 kts | 260° |
| 2026-04-20 02:19 | 39.80430 | -110.15423 | 32120 ft | 512 kts | 260° |
| 2026-04-20 02:20 | 39.79257 | -110.24554 | 32135 ft | 512 kts | 260° |
| 2026-04-20 02:20 | 39.78669 | -110.29109 | 31857 ft | 510 kts | 259° |
| 2026-04-20 02:20 | 39.78089 | -110.33593 | 31190 ft | 493 kts | 259° |
| 2026-04-20 02:21 | 39.76995 | -110.42006 | 29929 ft | 453 kts | 259° |
| 2026-04-20 02:21 | 39.76483 | -110.45914 | 29349 ft | 437 kts | 259° |
| 2026-04-20 02:21 | 39.75979 | -110.49763 | 28795 ft | 429 kts | 259° |
| 2026-04-20 02:22 | 39.75684 | -110.53598 | 28195 ft | 426 kts | 269° |
| 2026-04-20 02:22 | 39.76126 | -110.57394 | 27661 ft | 425 kts | 283° |
| 2026-04-20 02:22 | 39.77126 | -110.61000 | 27139 ft | 422 kts | 289° |
| 2026-04-20 02:22 | 39.78192 | -110.64563 | 26584 ft | 424 kts | 289° |
| 2026-04-20 02:23 | 39.79253 | -110.68153 | 26024 ft | 427 kts | 289° |
| 2026-04-20 02:23 | 39.80310 | -110.71784 | 25454 ft | 431 kts | 289° |
| 2026-04-20 02:23 | 39.81373 | -110.75422 | 24888 ft | 429 kts | 289° |
| 2026-04-20 02:23 | 39.82437 | -110.79039 | 24320 ft | 428 kts | 289° |
| 2026-04-20 02:24 | 39.83495 | -110.82646 | 23754 ft | 426 kts | 289° |
| 2026-04-20 02:24 | 39.84540 | -110.86231 | 23136 ft | 422 kts | 289° |
| 2026-04-20 02:24 | 39.85577 | -110.89791 | 22587 ft | 418 kts | 289° |
| 2026-04-20 02:24 | 39.86604 | -110.93315 | 22037 ft | 414 kts | 289° |
| 2026-04-20 02:25 | 39.87619 | -110.96800 | 21490 ft | 410 kts | 289° |
| 2026-04-20 02:25 | 39.88624 | -111.00260 | 20952 ft | 406 kts | 289° |
| 2026-04-20 02:25 | 39.89617 | -111.03686 | 20405 ft | 403 kts | 289° |
| 2026-04-20 02:25 | 39.90601 | -111.07083 | 19866 ft | 399 kts | 289° |
| 2026-04-20 02:26 | 39.91579 | -111.10461 | 19349 ft | 396 kts | 289° |
| 2026-04-20 02:26 | 39.92547 | -111.13813 | 18820 ft | 393 kts | 288° |
| 2026-04-20 02:26 | 39.93506 | -111.17136 | 18210 ft | 391 kts | 289° |
| 2026-04-20 02:26 | 39.94443 | -111.20387 | 17686 ft | 385 kts | 289° |
| 2026-04-20 02:27 | 39.95391 | -111.23678 | 17167 ft | 379 kts | 288° |
| 2026-04-20 02:27 | 39.96309 | -111.26874 | 16671 ft | 374 kts | 288° |
| 2026-04-20 02:27 | 39.97217 | -111.30034 | 16156 ft | 370 kts | 288° |
| 2026-04-20 02:27 | 39.98100 | -111.33115 | 15670 ft | 366 kts | 288° |
| 2026-04-20 02:28 | 39.98987 | -111.36210 | 15194 ft | 362 kts | 288° |
| 2026-04-20 02:28 | 39.99863 | -111.39272 | 14718 ft | 359 kts | 288° |
| 2026-04-20 02:28 | 40.00735 | -111.42319 | 14212 ft | 357 kts | 288° |
| 2026-04-20 02:28 | 40.01597 | -111.45343 | 13732 ft | 353 kts | 288° |
| 2026-04-20 02:29 | 40.02437 | -111.48290 | 13257 ft | 341 kts | 288° |
| 2026-04-20 02:29 | 40.03172 | -111.51161 | 12977 ft | 323 kts | 282° |
| 2026-04-20 02:29 | 40.03673 | -111.53906 | 12941 ft | 299 kts | 281° |
| 2026-04-20 02:29 | 40.04161 | -111.56462 | 12875 ft | 282 kts | 282° |
| 2026-04-20 02:30 | 40.04633 | -111.58931 | 12559 ft | 281 kts | 282° |
| 2026-04-20 02:30 | 40.05096 | -111.61398 | 12266 ft | 279 kts | 282° |
| 2026-04-20 02:30 | 40.05552 | -111.63852 | 12018 ft | 277 kts | 282° |
| 2026-04-20 02:30 | 40.06006 | -111.66283 | 11971 ft | 273 kts | 282° |
| 2026-04-20 02:31 | 40.06456 | -111.68685 | 11969 ft | 271 kts | 282° |
| 2026-04-20 02:31 | 40.06901 | -111.71062 | 11971 ft | 268 kts | 282° |
| 2026-04-20 02:31 | 40.07193 | -111.72627 | 11974 ft | 267 kts | 282° |
| 2026-04-20 02:31 | 40.07630 | -111.74975 | 11964 ft | 266 kts | 282° |
| 2026-04-20 02:32 | 40.08065 | -111.77311 | 12008 ft | 264 kts | 282° |
| 2026-04-20 02:32 | 40.08500 | -111.79636 | 12000 ft | 263 kts | 281° |
| 2026-04-20 02:32 | 40.09101 | -111.81886 | 11979 ft | 260 kts | 287° |
| 2026-04-20 02:32 | 40.09718 | -111.84085 | 12016 ft | 252 kts | 286° |
| 2026-04-20 02:33 | 40.10299 | -111.86195 | 11918 ft | 243 kts | 285° |
| 2026-04-20 02:33 | 40.10876 | -111.88292 | 11549 ft | 245 kts | 286° |
| 2026-04-20 02:33 | 40.11457 | -111.90382 | 11261 ft | 244 kts | 286° |
| 2026-04-20 02:33 | 40.12037 | -111.92464 | 10981 ft | 244 kts | 286° |
| 2026-04-20 02:34 | 40.12613 | -111.94540 | 10748 ft | 242 kts | 286° |
| 2026-04-20 02:34 | 40.13189 | -111.96621 | 10648 ft | 243 kts | 286° |
| 2026-04-20 02:34 | 40.13759 | -111.98678 | 10727 ft | 246 kts | 286° |
| 2026-04-20 02:34 | 40.14399 | -112.00747 | 10960 ft | 245 kts | 295° |
| 2026-04-20 02:35 | 40.15398 | -112.02565 | 10821 ft | 246 kts | 304° |
| 2026-04-20 02:35 | 40.16453 | -112.04340 | 10586 ft | 247 kts | 303° |
| 2026-04-20 02:35 | 40.17481 | -112.06138 | 10393 ft | 246 kts | 302° |
| 2026-04-20 02:35 | 40.18499 | -112.07923 | 10085 ft | 243 kts | 304° |
| 2026-04-20 02:36 | 40.19864 | -112.09292 | 9522 ft | 259 kts | 335° |
| 2026-04-20 02:36 | 40.21619 | -112.09658 | 9328 ft | 256 kts | 2° |
| 2026-04-20 02:36 | 40.23339 | -112.09065 | 8986 ft | 255 kts | 17° |
| 2026-04-20 02:36 | 40.25012 | -112.08320 | 8574 ft | 255 kts | 19° |
| 2026-04-20 02:37 | 40.26695 | -112.07588 | 8213 ft | 252 kts | 18° |
| 2026-04-20 02:37 | 40.28355 | -112.06879 | 7950 ft | 248 kts | 18° |
| 2026-04-20 02:37 | 40.29972 | -112.06184 | 7971 ft | 241 kts | 18° |
| 2026-04-20 02:37 | 40.31538 | -112.05507 | 7959 ft | 239 kts | 19° |
| 2026-04-20 02:38 | 40.33100 | -112.04833 | 7964 ft | 232 kts | 18° |
| 2026-04-20 02:38 | 40.34616 | -112.04180 | 7964 ft | 227 kts | 18° |
| 2026-04-20 02:38 | 40.36158 | -112.03512 | 7971 ft | 244 kts | 18° |
| 2026-04-20 02:38 | 40.37640 | -112.02315 | 7920 ft | 260 kts | 50° |
| 2026-04-20 02:39 | 40.38363 | -112.00150 | 7949 ft | 259 kts | 83° |
| 2026-04-20 02:39 | 40.38481 | -111.97913 | 7993 ft | 235 kts | 91° |
| 2026-04-20 02:39 | 40.38522 | -111.95836 | 7990 ft | 222 kts | 91° |
| 2026-04-20 02:39 | 40.38595 | -111.93849 | 7966 ft | 217 kts | 89° |
| 2026-04-20 02:40 | 40.38665 | -111.91863 | 7994 ft | 220 kts | 90° |
| 2026-04-20 02:40 | 40.38720 | -111.89843 | 7958 ft | 222 kts | 91° |
| 2026-04-20 02:40 | 40.38631 | -111.87841 | 7960 ft | 218 kts | 108° |
| 2026-04-20 02:40 | 40.37850 | -111.86159 | 7910 ft | 211 kts | 137° |
| 2026-04-20 02:41 | 40.36678 | -111.85219 | 7595 ft | 195 kts | 160° |
| 2026-04-20 02:41 | 40.35478 | -111.84494 | 7368 ft | 188 kts | 152° |
| 2026-04-20 02:41 | 40.34423 | -111.83518 | 7172 ft | 184 kts | 143° |
| 2026-04-20 02:41 | 40.33431 | -111.82500 | 7019 ft | 180 kts | 144° |
| 2026-04-20 02:42 | 40.32394 | -111.81540 | 6774 ft | 183 kts | 148° |
| 2026-04-20 02:42 | 40.31298 | -111.80621 | 6547 ft | 189 kts | 148° |
| 2026-04-20 02:42 | 40.30207 | -111.79638 | 6340 ft | 191 kts | 144° |
| 2026-04-20 02:42 | 40.29121 | -111.78651 | 6096 ft | 183 kts | 145° |
| 2026-04-20 02:43 | 40.28117 | -111.77754 | 5796 ft | 168 kts | 144° |
| 2026-04-20 02:43 | 40.27216 | -111.76933 | 5623 ft | 153 kts | 146° |
| 2026-04-20 02:43 | 40.26329 | -111.76169 | 5371 ft | 149 kts | 145° |
| 2026-04-20 02:43 | 40.25494 | -111.75408 | 5171 ft | 145 kts | 144° |
| 2026-04-20 02:44 | 40.24678 | -111.74691 | 4982 ft | 139 kts | 146° |
| 2026-04-20 02:44 | 40.23873 | -111.73989 | 4758 ft | 139 kts | 145° |
| 2026-04-20 02:44 | 40.23078 | -111.73290 | 4569 ft | 134 kts | 144° |
| 2026-04-20 02:44 | 40.22364 | -111.72666 | 4508 ft | 111 kts | 143° |
| 2026-04-20 02:45 | 40.21820 | -111.72173 | 4500 ft | 71 kts | 145° |
| 2026-04-20 02:45 | 40.21461 | -111.71860 | 4498 ft | 57 kts | 147° |
| 2026-04-20 02:45 | 40.21169 | -111.71602 | 4495 ft | 38 kts | 146° |
| 2026-04-20 02:45 | 40.21092 | -111.71489 | 4494 ft | 10 kts | 67° |
| 2026-04-20 02:46 | 40.21129 | -111.71419 | 4494 ft | 9 kts | 54° |
| 2026-04-20 02:46 | 40.21165 | -111.71388 | 4497 ft | 5 kts | 359° |
| 2026-04-20 02:46 | 40.21177 | -111.71393 | 4494 ft | 0 kts | 334° |
| 2026-04-20 02:47 | 40.21204 | -111.71417 | 4495 ft | 9 kts | 325° |
| 2026-04-20 02:47 | 40.21287 | -111.71490 | 4499 ft | 20 kts | 327° |
| 2026-04-20 02:47 | 40.21435 | -111.71622 | 4499 ft | 31 kts | 324° |
| 2026-04-20 02:48 | 40.21650 | -111.71813 | 4497 ft | 42 kts | 325° |
| 2026-04-20 02:48 | 40.21831 | -111.71976 | 4498 ft | 22 kts | 321° |
| 2026-04-20 02:48 | 40.21862 | -111.72004 | 4500 ft | 0 kts | 328° |
| 2026-04-20 02:49 | 40.21864 | -111.72004 | 4500 ft | 1 kts | 343° |
| 2026-04-20 02:49 | 40.21890 | -111.72005 | 4497 ft | 4 kts | 2° |
| 2026-04-20 02:49 | 40.21915 | -111.72003 | 4499 ft | 3 kts | 5° |
| 2026-04-20 02:49 | 40.21932 | -111.72000 | 4497 ft | 2 kts | 7° |
| 2026-04-20 02:50 | 40.21959 | -111.71995 | 4499 ft | 5 kts | 9° |
| 2026-04-20 02:50 | 40.21968 | -111.71960 | 4497 ft | 6 kts | 112° |
| 2026-04-20 02:50 | 40.21944 | -111.71916 | 4498 ft | 2 kts | 153° |
| 2026-04-20 02:50 | 40.21924 | -111.71919 | 4498 ft | 3 kts | 193° |
| 2026-04-20 02:51 | 40.21921 | -111.71920 | 4498 ft | 0 kts | 193° |